Du har inga inställningar för hoppväder.nu

Hoppväder.nu

Senast uppdaterat 13:50

UTC-tid

2019-05-26 kl. 11:50


Sol och måne

Solen går upp 3:50 och går ner 23:00 (beräknade cirkatider)
Nästa fullmåne blir om 22 dagar (2019-06-17)

METAR

ESSD (Borlänge)
(30 minuter sedan)
ESSD 261120Z AUTO 34008KT 9999 RA FEW009/// SCT015/// BKN027/// 09/08 Q0992=



ESOE (Örebro)
(30 minuter sedan)
ESOE 261120Z AUTO 27017G27KT 230V290 9999 FEW028/// SCT054/// 12/07 Q0994 REDZ=



ESOW (Västerås)
(30 minuter sedan)
ESOW 261120Z 27008KT 230V340 9999 VCSH FEW007 BKN036CB 10/07 Q0993=



ESOK (Karlstad)
(30 minuter sedan)
ESOK 261120Z AUTO 28013KT 9999 SCT024/// OVC033/// 09/04 Q0996=






TAF

ESSD (Borlänge)
ESSD



ESOE (Örebro)
(20 minuter sedan)
ESOE 261130Z 2612/2617 28015G25KT 9999 SCT040CB=



ESOW (Västerås)
(20 minuter sedan)
ESOW 261130Z 2612/2614 29012G22KT 9999 SCT020 TEMPO 2612/2614 SHRA BKN030CB=



ESOK (Karlstad)
(20 minuter sedan)
ESOK 261130Z 2612/2620 30015G25KT 9999 BKN030 PROB40 2612/2614 SHRA SCT030CB BECMG 2614/2617 VRB02KT=





Kodnycklar till TAF och METAR






LHP

(Borlänge är område F2a i Norra delen)

ÖVERSIKT FÖR OMRÅDE B UTFÄRDAD 260745
GÄLLANDE DEN 26 MAJ 2019 MELLAN 08 OCH 16 UTC


Väderöversikt

Ett lågtryck med front rör sig österut över södra Sverige

Sikt under 5 kilometer eller molnbas under 1000 fot
08-16UTC: Hela området utom Sydöstra delen


Måttlig eller svår isbildning
08-14UTC: I hela området
14-16UTC: Hela området utom Sydöstra delen


Måttlig eller svår turbulens
08-12UTC: Område Nordvästra delen och Södra delen
12-16UTC: Område Södra delen



PROGNOS FÖR OMRÅDE B DEN NORRA DELEN UTFÄRDAD 260745
GÄLLANDE DEN 26 MAJ 2019 MELLAN 08 OCH 16 UTC

Måttlig eller svår turbulens
08-16UTC: I hela området: Väntas inte förekomma under perioden

Måttlig eller svår isbildning
08-16UTC: I hela området: måttlig isbildning 4000ft - > FL125

Sikt/Väder/Moln
08-10UTC: Område F2d: Sikt >8km i regn, lokalt 3km - 5km i regnskurar. Molnbas >2000ft, lokalt 500ft - 1000ft.

08-12UTC: Område F2a: Sikt >8km i regn, lokalt 3km - 5km i regnskurar. Molnbas >2000ft, lokalt <500ft.
Område F1b,F1a,F2c,F2b: Sikt 3km - >8km i regnskurar, regn. Molnbas <500ft - >2000ft.

10-14UTC: Område F2d: Sikt >8km i regn, lokalt 3km - 5km i regnskurar. Molnbas >2000ft, lokalt 1000ft - 1500ft.

12-14UTC: Område F1b,F1a,F2c,F2b: Sikt 3km - >8km i regnskurar, regn. Molnbas 500ft - >2000ft.
Område F2a: Sikt >8km i regn, lokalt 3km - 5km i regnskurar. Molnbas >2000ft, lokalt 500ft - 1000ft.

14-16UTC: Område F1a,F2a,F2c,F2b,F2d: Sikt >8km, lokalt 3km - 5km i regnskurar. Molnbas >2000ft, lokalt 1000ft - 1500ft.
Område F1b: Sikt 3km - >8km i regnskurar. Molnbas 1000ft - >2000ft.


Molnöversida
08-16UTC: I hela området: Molnöversida > FL125.

CB/TCU Moln
08-16UTC: I hela området: ISOL EMBD CB

Nollgradersisoterm
08-14UTC: Noll grader 4000ft - FL060.
14-16UTC: Noll grader 3500ft - FL050.

Vind vid marken
08-10UTC: Område F2b: SV-V/3-11 knop, byar upp till 28 knop.
Område F2d: S-SV/4-14 knop, byar upp till 25 knop.
Område F1a: SO/0-8 knop, byar upp till 11 knop.
Område F1b: S/3-22 knop, byar upp till 28 knop.
Område F2c: SV/3-12 knop, byar upp till 23 knop.
Område F2a: NO-O/0-13 knop, byar upp till 19 knop.

10-12UTC: Område F2d: SV/5-15 knop, byar upp till 24 knop.
Område F2b: V/3-14 knop, byar upp till 29 knop.
Område F2a: NV-N/0-16 knop, byar upp till 24 knop.
Område F1a: NO/0-14 knop, byar upp till 18 knop.
Område F2c: SV-V/1-14 knop, byar upp till 25 knop.
Område F1b: S-SV/1-23 knop, byar upp till 29 knop.

12-14UTC: Område F2c: V/3-15 knop, byar upp till 27 knop.
Område F1b: SV-V/2-20 knop, byar upp till 27 knop.
Område F2d: SV-V/4-13 knop, byar upp till 26 knop.
Område F1a: NV-N/4-22 knop, byar upp till 31 knop.
Område F2a: NV-N/2-14 knop, byar upp till 26 knop.
Område F2b: W-NV/4-13 knop, byar upp till 27 knop.

14-16UTC: Område F2d: V/5-16 knop, byar upp till 28 knop.
Område F1b: V/5-21 knop, byar upp till 31 knop.
Område F1a: NV-N/7-26 knop, byar upp till 36 knop.
Område F2c: NV/5-14 knop, byar upp till 22 knop.
Område F2b: NV-N/4-12 knop, byar upp till 24 knop.
Område F2a: NV-N/3-15 knop, byar upp till 25 knop.


Genomsnittlig vind och temperatur för området
2000ft:
08-10UTC: 240/17kt +4.
10-12UTC: 270/21kt +4.
12-14UTC: 290/23kt +4.
14-16UTC: 320/24kt +3.

FL50:
08-10UTC: 250/16kt +0.
10-12UTC: 270/19kt +0.
12-14UTC: 290/21kt +0.
14-16UTC: 330/23kt -1.

FL100:
08-10UTC: 240/14kt -9.
10-12UTC: 270/14kt -10.
12-14UTC: 300/16kt -10.
14-16UTC: 320/21kt -9.

Lägsta QNH
990 hPa.

OBS! endast utbredd måttlig eller svår isbildning och turbulens prognostiseras i LLF.
Avsaknad av isbildning och turbulens i prognosen utesluter inte förekomst av lätt isbildning och turbulens.
För indikation på lätt isbildning, var vänlig kontrollera om prognosen för molntopp ligger högre än nollgradersisotermen.
Förekomst av TCU eller CB medför alltid en risk för måttlig eller svår isbildning och turbulens även om det inte framgår explicit av prognosen.





Spotting

Hur fungerar spotthjälpen och Vindkartan?

Markvind är ca 0-8 m/s med byar på 12 m/s.
Vind på 600 m ca 11 m/s.
Vind på 1500 m ca 10 m/s.
Vind på 3000 m ca 7 m/s.
Rudolf-David flyger ca 34 m/s över marken på finalen.
Du driver ca 324 m bakåt i frifall. (432 m)
Lämplig spot är 1 sekunder eller 34 m efter gropen.
(4 s eller 136 m)
För små grupper eller ensamhoppare bör man vänta 4-6 sekunder mellan grupperna.
För större grupper bör man vänta 9-11 sekunder mellan grupperna.


Vindkartan

Senast uppdaterad 13:50




All data kommer från LFV.se